Time;durP1;ratioP1;P1;durP2;ratioP2;P2;SDS_P1;SDS_P2;PMS_P1;PMS_P2;Temp;Humidity;BMP_temperature;BMP_pressure;BME280_temperature;BME280_humidity;BME280_pressure;Samples;Min_cycle;Max_cycle;Signal;HPM_P1;HPM_P2
2021/12/10 00:01:21;;;;;;;3.50;2.40;;;4.70;99.90;;;;;;4970357;28;20433;-69
2021/12/10 00:03:54;;;;;;;2.50;1.90;;;4.80;99.90;;;;;;4968720;28;21098;-69
2021/12/10 00:06:25;;;;;;;1.90;1.60;;;4.70;99.90;;;;;;4974221;28;20438;-69
2021/12/10 00:08:57;;;;;;;5.97;1.83;;;4.80;99.90;;;;;;4967696;28;20970;-68
2021/12/10 00:11:29;;;;;;;4.30;3.13;;;4.70;99.90;;;;;;4972330;28;20463;-69
2021/12/10 00:13:57;;;;;;;2.83;1.87;;;4.50;99.90;;;;;;4968143;28;20511;-68
2021/12/10 00:16:25;;;;;;;4.73;2.30;;;4.50;99.90;;;;;;4954332;28;20436;-67
2021/12/10 00:18:56;;;;;;;3.20;2.30;;;4.40;99.90;;;;;;4964830;28;20433;-69
2021/12/10 00:21:26;;;;;;;2.67;2.47;;;4.40;99.90;;;;;;4970090;28;20972;-69
2021/12/10 00:23:56;;;;;;;3.43;1.83;;;4.40;99.90;;;;;;4968885;28;20478;-68
2021/12/10 00:26:24;;;;;;;4.50;3.67;;;4.50;99.90;;;;;;4954712;28;20466;-68
2021/12/10 00:29:01;;;;;;;2.40;2.13;;;4.60;99.90;;;;;;4967114;28;20452;-68
2021/12/10 00:31:45;;;;;;;3.07;2.57;;;4.60;99.90;;;;;;4961643;28;20643;-69
2021/12/10 00:34:20;;;;;;;1.67;1.57;;;4.60;99.90;;;;;;4968285;28;21080;-68
2021/12/10 00:36:48;;;;;;;2.90;2.40;;;4.40;99.90;;;;;;4947508;28;21029;-68
2021/12/10 00:39:21;;;;;;;3.30;3.00;;;4.40;99.90;;;;;;4949362;28;20623;-66
2021/12/10 00:41:48;;;;;;;2.80;1.70;;;4.40;99.90;;;;;;4967504;28;20505;-68
2021/12/10 00:44:15;;;;;;;4.43;2.37;;;4.40;99.90;;;;;;4977237;28;20456;-70
2021/12/10 00:46:42;;;;;;;2.93;2.70;;;4.30;99.90;;;;;;4964484;28;20479;-67
2021/12/10 00:49:09;;;;;;;3.97;3.67;;;4.20;99.90;;;;;;4968431;28;20589;-69
2021/12/10 00:51:37;;;;;;;5.47;3.00;;;4.30;99.90;;;;;;4966253;28;20933;-69
2021/12/10 00:54:05;;;;;;;8.23;2.87;;;4.20;99.90;;;;;;4965303;28;20994;-69
2021/12/10 00:56:35;;;;;;;2.80;2.50;;;4.20;99.90;;;;;;4970133;28;20440;-67
2021/12/10 00:59:02;;;;;;;3.70;2.30;;;4.30;99.90;;;;;;4970367;28;20459;-68
2021/12/10 01:01:32;;;;;;;4.80;3.60;;;4.20;99.90;;;;;;4972534;28;20539;-69
2021/12/10 01:04:04;;;;;;;5.00;2.87;;;4.20;99.90;;;;;;4951228;28;20461;-67
2021/12/10 01:06:31;;;;;;;4.63;2.67;;;4.30;99.90;;;;;;4951932;28;20586;-68
2021/12/10 01:09:00;;;;;;;2.80;2.53;;;4.30;99.90;;;;;;4956761;28;20511;-69
2021/12/10 01:11:30;;;;;;;4.20;2.63;;;4.20;99.90;;;;;;4969144;28;20506;-69
2021/12/10 01:14:12;;;;;;;5.63;2.77;;;4.20;99.90;;;;;;4953462;28;20526;-69
2021/12/10 01:25:08;;;;;;;4.33;2.80;;;4.40;99.90;;;;;;4961756;28;20878;-67
2021/12/10 01:27:39;;;;;;;4.33;2.90;;;4.40;99.90;;;;;;4961809;28;20497;-69
2021/12/10 01:30:13;;;;;;;2.60;2.40;;;4.20;99.90;;;;;;4966367;28;20989;-67
2021/12/10 01:32:44;;;;;;;4.03;3.07;;;4.10;99.90;;;;;;4959201;28;20597;-69
2021/12/10 01:35:14;;;;;;;6.60;4.57;;;4.20;99.90;;;;;;4966942;28;20972;-68
2021/12/10 01:37:42;;;;;;;3.57;1.73;;;4.40;99.90;;;;;;4966193;28;20781;-68
2021/12/10 01:40:11;;;;;;;4.47;2.97;;;4.50;99.90;;;;;;4962539;28;20442;-67
2021/12/10 01:42:43;;;;;;;5.20;3.43;;;4.60;99.90;;;;;;4964257;28;20463;-69
2021/12/10 01:45:20;;;;;;;6.90;2.87;;;4.70;99.90;;;;;;4956389;28;21010;-67
2021/12/10 01:47:51;;;;;;;4.83;3.07;;;4.90;99.90;;;;;;4963497;28;20572;-69
2021/12/10 01:50:19;;;;;;;3.93;2.80;;;4.70;99.90;;;;;;4966221;28;20975;-69
2021/12/10 01:52:51;;;;;;;4.13;2.93;;;4.70;99.90;;;;;;4966616;28;20615;-69
2021/12/10 01:55:21;;;;;;;4.37;2.97;;;4.80;99.90;;;;;;4961631;28;20453;-68
2021/12/10 01:57:49;;;;;;;1.77;1.67;;;4.80;99.90;;;;;;4967698;28;20524;-68
2021/12/10 02:00:20;;;;;;;13.90;3.20;;;4.80;99.90;;;;;;4967680;28;20460;-68
2021/12/10 02:02:48;;;;;;;3.47;2.93;;;4.90;99.90;;;;;;4970473;28;21411;-69
2021/12/10 02:05:17;;;;;;;5.57;2.87;;;4.80;99.90;;;;;;4963196;28;20486;-68
2021/12/10 02:07:45;;;;;;;4.70;2.87;;;4.90;99.90;;;;;;4968708;28;21017;-69
2021/12/10 02:10:13;;;;;;;4.70;2.50;;;4.90;99.90;;;;;;4962311;28;20457;-68
2021/12/10 02:12:40;;;;;;;6.67;2.57;;;4.70;99.90;;;;;;4970383;28;20585;-68
2021/12/10 02:15:11;;;;;;;2.53;2.33;;;4.70;99.90;;;;;;4969239;28;20467;-68
2021/12/10 02:17:42;;;;;;;2.30;1.87;;;4.80;99.90;;;;;;4979206;28;20423;-68
2021/12/10 02:20:13;;;;;;;5.07;3.90;;;4.80;99.90;;;;;;4960853;28;20782;-68
2021/12/10 02:22:43;;;;;;;2.17;1.97;;;4.70;99.90;;;;;;4969999;28;20601;-68
2021/12/10 02:25:11;;;;;;;6.37;2.53;;;4.70;99.90;;;;;;4965747;28;20470;-69
2021/12/10 02:27:39;;;;;;;4.97;2.20;;;4.90;99.90;;;;;;4973842;28;20547;-68
2021/12/10 02:30:10;;;;;;;2.00;1.80;;;4.70;99.90;;;;;;4972066;28;20921;-69
2021/12/10 02:32:38;;;;;;;2.80;2.20;;;4.60;99.90;;;;;;4974943;28;20458;-68
2021/12/10 02:35:10;;;;;;;5.43;2.27;;;4.60;99.90;;;;;;4970760;28;20634;-69
2021/12/10 02:37:38;;;;;;;6.20;2.70;;;4.60;99.90;;;;;;4974494;28;20473;-69
2021/12/10 02:40:09;;;;;;;2.50;1.93;;;4.60;99.90;;;;;;4972912;28;20458;-67
2021/12/10 02:42:37;;;;;;;3.63;2.07;;;4.50;99.90;;;;;;4967297;28;20453;-68
2021/12/10 02:45:06;;;;;;;2.20;2.10;;;4.50;99.90;;;;;;4964160;28;20434;-70
2021/12/10 02:47:34;;;;;;;3.13;2.13;;;4.60;99.90;;;;;;4967470;28;20493;-69
2021/12/10 02:50:02;;;;;;;2.37;2.07;;;4.50;99.90;;;;;;4975993;28;21010;-70
2021/12/10 02:52:29;;;;;;;2.87;2.20;;;4.50;99.90;;;;;;4968048;28;20544;-70
2021/12/10 02:54:58;;;;;;;2.60;2.40;;;4.50;99.90;;;;;;4962996;28;20440;-69
2021/12/10 02:57:28;;;;;;;15.40;2.30;;;4.50;99.90;;;;;;4967642;28;20466;-70
2021/12/10 02:59:55;;;;;;;6.80;2.10;;;4.40;99.90;;;;;;4970301;28;20966;-70
2021/12/10 03:02:25;;;;;;;4.47;2.37;;;4.40;99.90;;;;;;4973947;28;20466;-70
2021/12/10 03:04:53;;;;;;;4.27;3.87;;;4.20;99.90;;;;;;4954564;28;20466;-68
2021/12/10 03:07:22;;;;;;;3.47;2.30;;;4.30;99.90;;;;;;4967723;28;20434;-70
2021/12/10 03:09:51;;;;;;;3.40;2.80;;;4.20;99.90;;;;;;4964681;28;20523;-70
2021/12/10 03:12:20;;;;;;;2.47;1.83;;;4.20;99.90;;;;;;4973211;28;25033;-69
2021/12/10 03:14:51;;;;;;;3.17;1.83;;;4.20;99.90;;;;;;4962582;28;20453;-69
2021/12/10 03:17:21;;;;;;;2.27;2.00;;;4.20;99.90;;;;;;4973146;28;20468;-69
2021/12/10 03:19:49;;;;;;;9.80;3.03;;;4.10;99.90;;;;;;4967255;28;20625;-68
2021/12/10 03:22:16;;;;;;;3.20;1.93;;;4.10;99.90;;;;;;4972737;28;20930;-70
2021/12/10 03:24:43;;;;;;;3.13;2.60;;;4.10;99.90;;;;;;4970927;28;20555;-70
2021/12/10 03:27:11;;;;;;;4.90;2.10;;;4.10;99.90;;;;;;4978795;28;20470;-70
2021/12/10 03:29:42;;;;;;;2.73;1.77;;;4.00;99.90;;;;;;4968372;28;20867;-70
2021/12/10 03:32:13;;;;;;;2.83;2.50;;;3.90;99.90;;;;;;4968396;28;20459;-68
2021/12/10 03:34:41;;;;;;;4.67;2.47;;;3.90;99.90;;;;;;4966635;28;20652;-70
2021/12/10 03:37:08;;;;;;;2.80;1.33;;;3.90;99.90;;;;;;4970704;28;20440;-69
2021/12/10 03:39:37;;;;;;;2.93;1.90;;;3.90;99.90;;;;;;4963895;28;20516;-69
2021/12/10 03:42:06;;;;;;;5.00;1.60;;;3.80;99.90;;;;;;4952133;28;20467;-68
2021/12/10 03:44:34;;;;;;;2.20;1.43;;;3.80;99.90;;;;;;4963970;28;20444;-68
2021/12/10 03:47:02;;;;;;;2.40;1.50;;;3.80;99.90;;;;;;4971465;28;20876;-67
2021/12/10 03:49:31;;;;;;;2.27;1.60;;;3.90;99.90;;;;;;4968162;28;21037;-68
2021/12/10 03:51:59;;;;;;;1.30;0.77;;;3.90;99.90;;;;;;4975443;28;20846;-69
2021/12/10 03:54:27;;;;;;;2.60;2.40;;;3.80;99.90;;;;;;4970943;28;20601;-69
2021/12/10 03:56:54;;;;;;;1.63;1.53;;;3.70;99.90;;;;;;4971986;28;20784;-69
2021/12/10 03:59:23;;;;;;;2.13;1.73;;;3.70;99.90;;;;;;4969498;28;20837;-69
2021/12/10 04:01:53;;;;;;;1.43;1.30;;;3.70;99.90;;;;;;4968772;28;20543;-68
2021/12/10 04:04:24;;;;;;;1.77;1.67;;;3.70;99.90;;;;;;4965263;28;20460;-68
2021/12/10 04:06:53;;;;;;;2.30;1.30;;;3.70;99.90;;;;;;4970071;28;20786;-70
2021/12/10 04:09:20;;;;;;;6.10;1.87;;;3.70;99.90;;;;;;4971418;28;20493;-70
2021/12/10 04:11:47;;;;;;;4.10;2.03;;;3.60;99.90;;;;;;4967499;28;20477;-68
2021/12/10 04:14:14;;;;;;;1.43;1.23;;;3.60;99.90;;;;;;4969158;28;20473;-69
2021/12/10 04:16:41;;;;;;;1.67;1.23;;;3.60;99.90;;;;;;4948138;28;20929;-68
2021/12/10 04:19:12;;;;;;;1.20;1.10;;;3.60;99.90;;;;;;4964278;28;20485;-69
2021/12/10 04:21:41;;;;;;;1.43;1.30;;;3.60;99.90;;;;;;4961329;28;20487;-68
2021/12/10 04:24:14;;;;;;;5.23;1.60;;;3.60;99.90;;;;;;4945110;28;20494;-68
2021/12/10 04:26:41;;;;;;;2.00;1.57;;;3.70;99.90;;;;;;4949064;28;20589;-69
2021/12/10 04:29:08;;;;;;;2.93;2.73;;;3.70;99.90;;;;;;4966056;28;20565;-69
2021/12/10 04:31:35;;;;;;;0.90;0.70;;;3.60;99.90;;;;;;4959765;28;20994;-68
2021/12/10 04:34:03;;;;;;;1.13;1.03;;;3.60;99.90;;;;;;4957081;28;20561;-68
2021/12/10 04:36:30;;;;;;;1.70;1.13;;;3.60;99.90;;;;;;4957100;28;20480;-68
2021/12/10 04:38:57;;;;;;;1.30;1.20;;;3.60;99.90;;;;;;4946467;28;20941;-67
2021/12/10 04:41:26;;;;;;;1.10;1.00;;;3.60;99.90;;;;;;4950163;28;20994;-69
2021/12/10 04:43:53;;;;;;;3.90;1.67;;;3.50;99.90;;;;;;4965959;28;20543;-69
2021/12/10 04:46:20;;;;;;;1.93;0.90;;;3.50;99.90;;;;;;4961433;28;20462;-69
2021/12/10 04:48:51;;;;;;;1.53;1.43;;;3.50;99.90;;;;;;4955934;28;21247;-70
2021/12/10 04:51:22;;;;;;;1.20;1.10;;;3.50;99.90;;;;;;4946524;28;20960;-68
2021/12/10 04:53:49;;;;;;;1.63;1.40;;;3.50;99.90;;;;;;4966906;28;20498;-69
2021/12/10 04:56:17;;;;;;;1.60;1.40;;;3.60;99.90;;;;;;4956078;28;20530;-68
2021/12/10 04:58:45;;;;;;;1.20;1.10;;;3.60;99.90;;;;;;4969829;28;20441;-69
2021/12/10 05:01:12;;;;;;;1.40;1.17;;;3.70;99.90;;;;;;4950269;28;20496;-69
2021/12/10 05:03:40;;;;;;;1.60;1.50;;;3.80;99.90;;;;;;4963747;28;20894;-68
2021/12/10 05:06:08;;;;;;;1.30;1.20;;;3.90;99.90;;;;;;4959989;28;20462;-69
2021/12/10 05:08:38;;;;;;;4.37;1.40;;;3.90;99.90;;;;;;4968178;28;20965;-68
2021/12/10 05:11:07;;;;;;;1.00;0.80;;;3.90;99.90;;;;;;4962830;28;20919;-69
2021/12/10 05:13:36;;;;;;;0.90;0.70;;;4.00;99.90;;;;;;4966156;28;20461;-69
2021/12/10 05:16:05;;;;;;;1.00;0.90;;;3.90;99.90;;;;;;4962742;28;20429;-68
2021/12/10 05:18:37;;;;;;;1.00;0.87;;;3.80;99.90;;;;;;4965583;28;20828;-69
2021/12/10 05:21:05;;;;;;;1.17;1.07;;;3.90;99.90;;;;;;4958745;28;20430;-68
2021/12/10 05:23:33;;;;;;;0.90;0.70;;;3.80;99.90;;;;;;4951982;28;20496;-68
2021/12/10 05:26:00;;;;;;;2.93;1.83;;;3.80;99.90;;;;;;4952146;28;20434;-69
2021/12/10 05:28:28;;;;;;;1.50;1.20;;;3.80;99.90;;;;;;4958121;28;20433;-68
2021/12/10 05:30:56;;;;;;;3.87;1.67;;;3.80;99.90;;;;;;4964296;28;20540;-70
2021/12/10 05:33:26;;;;;;;4.60;1.23;;;3.80;99.90;;;;;;4959103;28;22229;-69
2021/12/10 05:35:53;;;;;;;1.13;1.03;;;3.80;99.90;;;;;;4952503;28;20486;-70
2021/12/10 05:38:22;;;;;;;1.87;1.50;;;3.80;99.90;;;;;;4952811;28;20967;-67
2021/12/10 05:40:52;;;;;;;1.10;0.80;;;3.70;99.90;;;;;;4959549;28;20520;-68
2021/12/10 05:43:19;;;;;;;1.87;1.67;;;3.70;99.90;;;;;;4970915;28;20863;-67
2021/12/10 05:45:47;;;;;;;1.67;1.37;;;3.70;99.90;;;;;;4971918;28;20464;-69
2021/12/10 05:48:15;;;;;;;1.00;0.90;;;3.70;99.90;;;;;;4969708;28;20517;-68
2021/12/10 05:50:44;;;;;;;1.30;0.90;;;3.70;99.90;;;;;;4974282;28;21054;-69
2021/12/10 05:53:11;;;;;;;2.43;1.20;;;3.70;99.90;;;;;;4975656;28;20485;-68
2021/12/10 05:55:41;;;;;;;1.37;1.07;;;3.70;99.90;;;;;;4967098;28;20983;-68
2021/12/10 05:58:09;;;;;;;4.70;1.10;;;3.60;99.90;;;;;;4963780;28;20490;-68
2021/12/10 06:00:40;;;;;;;1.83;1.20;;;3.60;99.90;;;;;;4977276;28;20417;-67
2021/12/10 06:03:07;;;;;;;2.33;1.73;;;3.60;99.90;;;;;;4986039;28;20474;-68
2021/12/10 06:05:35;;;;;;;4.27;1.67;;;3.60;99.90;;;;;;4972819;28;20662;-68
2021/12/10 06:08:05;;;;;;;3.93;1.60;;;3.60;99.90;;;;;;4978421;28;20447;-66
2021/12/10 06:10:32;;;;;;;1.87;1.70;;;3.60;99.90;;;;;;4980525;28;20969;-68
2021/12/10 06:13:00;;;;;;;1.93;1.37;;;3.60;99.90;;;;;;4984780;28;20457;-68
2021/12/10 06:15:28;;;;;;;1.77;1.47;;;3.50;99.90;;;;;;4976467;28;20518;-68
2021/12/10 06:17:55;;;;;;;1.53;1.43;;;3.40;99.90;;;;;;4981650;28;20446;-69
2021/12/10 06:20:26;;;;;;;2.90;2.40;;;3.40;99.90;;;;;;4983614;28;20935;-69
2021/12/10 06:22:54;;;;;;;1.20;1.00;;;3.40;99.90;;;;;;4976792;28;21417;-68
2021/12/10 06:25:23;;;;;;;1.97;1.77;;;3.40;99.90;;;;;;4976965;28;20521;-69
2021/12/10 06:27:50;;;;;;;1.63;1.53;;;3.40;99.90;;;;;;4979464;28;20504;-71
2021/12/10 06:30:21;;;;;;;1.90;1.80;;;3.50;99.90;;;;;;4980039;28;20467;-69
2021/12/10 06:32:54;;;;;;;3.57;1.90;;;3.50;99.90;;;;;;4986029;28;21918;-68
2021/12/10 06:35:22;;;;;;;2.33;2.13;;;3.50;99.90;;;;;;4984153;28;20531;-70
2021/12/10 06:37:51;;;;;;;1.97;1.77;;;3.60;99.90;;;;;;4982925;28;20442;-69
2021/12/10 06:40:19;;;;;;;5.03;4.53;;;3.60;99.90;;;;;;4984299;28;20955;-69
2021/12/10 06:42:48;;;;;;;0.90;0.73;;;3.50;99.90;;;;;;4980711;28;20479;-68
2021/12/10 06:45:18;;;;;;;1.83;1.40;;;3.50;99.90;;;;;;4979384;28;20797;-70
2021/12/10 06:47:48;;;;;;;4.70;2.23;;;3.50;99.90;;;;;;4981735;28;20480;-69
2021/12/10 06:50:16;;;;;;;3.40;1.73;;;3.50;99.90;;;;;;4982353;28;20452;-69
2021/12/10 06:52:44;;;;;;;3.60;1.63;;;3.60;99.90;;;;;;4984152;28;20466;-70
2021/12/10 06:55:11;;;;;;;2.60;2.07;;;3.60;99.90;;;;;;4979878;28;20445;-68
2021/12/10 06:57:38;;;;;;;1.87;1.63;;;3.60;99.90;;;;;;4980894;28;20429;-70
2021/12/10 07:00:12;;;;;;;5.03;2.33;;;3.60;99.90;;;;;;4985066;28;20454;-69
2021/12/10 07:02:39;;;;;;;4.27;2.90;;;3.60;99.90;;;;;;4984407;28;20845;-69
2021/12/10 07:05:07;;;;;;;30.47;2.90;;;3.60;99.90;;;;;;4966212;28;21507;-69
2021/12/10 07:07:34;;;;;;;6.93;1.60;;;3.60;99.90;;;;;;4978991;28;20526;-70
2021/12/10 07:10:02;;;;;;;6.83;1.67;;;3.50;99.90;;;;;;4976693;28;20867;-70
2021/12/10 07:12:29;;;;;;;1.87;1.40;;;3.50;99.90;;;;;;4973576;28;20466;-69
2021/12/10 07:15:00;;;;;;;1.37;1.27;;;3.40;99.90;;;;;;4980083;28;20516;-70
2021/12/10 07:17:28;;;;;;;1.87;1.67;;;3.40;99.90;;;;;;4978765;28;20524;-70
2021/12/10 07:19:56;;;;;;;3.03;1.40;;;3.30;99.90;;;;;;4986869;28;20419;-71
2021/12/10 07:22:23;;;;;;;1.87;1.77;;;3.20;99.90;;;;;;4976400;28;20984;-70
2021/12/10 07:24:50;;;;;;;1.70;1.00;;;3.20;99.90;;;;;;4971423;28;21234;-70
2021/12/10 07:27:17;;;;;;;1.77;1.67;;;3.20;99.90;;;;;;4977659;28;20918;-70
2021/12/10 07:29:44;;;;;;;1.90;1.73;;;3.20;99.90;;;;;;4974031;28;20518;-69
2021/12/10 07:32:12;;;;;;;4.73;1.97;;;3.20;99.90;;;;;;4980684;28;20450;-68
2021/12/10 07:34:41;;;;;;;3.57;2.73;;;3.20;99.90;;;;;;4975603;28;20459;-68
2021/12/10 07:37:10;;;;;;;2.27;1.57;;;3.20;99.90;;;;;;4976560;28;20481;-69
2021/12/10 07:39:38;;;;;;;2.30;1.80;;;3.20;99.90;;;;;;4977653;28;20904;-69
2021/12/10 07:42:07;;;;;;;8.60;1.77;;;3.20;99.90;;;;;;4976894;28;20425;-69
2021/12/10 07:44:34;;;;;;;12.63;1.60;;;3.20;99.90;;;;;;4967170;28;20455;-69
2021/12/10 07:47:02;;;;;;;1.53;1.43;;;3.20;99.90;;;;;;4972889;28;20791;-67
2021/12/10 07:49:31;;;;;;;3.90;2.00;;;3.20;99.90;;;;;;4976206;28;20557;-69
2021/12/10 07:52:01;;;;;;;2.63;2.10;;;3.20;99.90;;;;;;4982235;28;20514;-69
2021/12/10 07:54:28;;;;;;;3.70;2.37;;;3.30;99.90;;;;;;4977966;28;20466;-69
2021/12/10 07:56:55;;;;;;;1.90;1.80;;;3.30;99.90;;;;;;4983225;28;20528;-69
2021/12/10 07:59:24;;;;;;;3.50;2.63;;;3.50;99.90;;;;;;4979332;28;21076;-67
2021/12/10 08:01:51;;;;;;;2.90;2.20;;;3.60;99.90;;;;;;4977740;28;20446;-69
2021/12/10 08:04:21;;;;;;;4.03;3.43;;;3.70;99.90;;;;;;4973074;28;20474;-68
2021/12/10 08:06:48;;;;;;;3.60;2.23;;;3.80;99.90;;;;;;4973204;28;20503;-70
2021/12/10 08:09:16;;;;;;;3.20;2.70;;;3.80;99.90;;;;;;4972418;28;20572;-70
2021/12/10 08:11:43;;;;;;;3.40;2.97;;;3.90;99.90;;;;;;4978320;28;20945;-69
2021/12/10 08:14:10;;;;;;;2.77;2.10;;;3.80;99.90;;;;;;4974509;28;20465;-69
2021/12/10 08:16:39;;;;;;;6.00;2.03;;;3.90;99.90;;;;;;4961372;28;20518;-69
2021/12/10 08:19:06;;;;;;;5.97;1.63;;;3.70;99.90;;;;;;4970133;28;20964;-69
2021/12/10 08:21:34;;;;;;;5.43;1.83;;;3.80;99.90;;;;;;4977353;28;20478;-69
2021/12/10 08:24:01;;;;;;;1.20;1.10;;;3.80;99.90;;;;;;4975366;28;20475;-69
2021/12/10 08:26:29;;;;;;;3.43;1.53;;;3.80;99.90;;;;;;4972723;28;20483;-70
2021/12/10 08:28:56;;;;;;;5.83;1.90;;;3.80;99.90;;;;;;4972032;28;20992;-69
2021/12/10 08:31:23;;;;;;;3.90;2.50;;;3.90;99.90;;;;;;4972520;28;20819;-69
2021/12/10 08:33:51;;;;;;;6.57;2.20;;;4.00;99.90;;;;;;4975554;28;21054;-69
2021/12/10 08:36:21;;;;;;;2.07;1.67;;;4.10;99.90;;;;;;4976072;28;20520;-68
2021/12/10 08:38:48;;;;;;;2.60;2.40;;;4.50;99.90;;;;;;4980399;28;20821;-67
2021/12/10 08:41:17;;;;;;;4.30;1.67;;;4.70;99.90;;;;;;4980187;28;20440;-70
2021/12/10 08:43:47;;;;;;;17.93;2.47;;;5.20;99.90;;;;;;4975065;28;20533;-70
2021/12/10 08:46:16;;;;;;;5.53;3.63;;;6.10;99.90;;;;;;4974516;28;20533;-70
2021/12/10 08:48:44;;;;;;;4.50;2.00;;;6.70;99.90;;;;;;4983554;28;20465;-68
2021/12/10 08:51:14;;;;;;;5.73;2.23;;;6.90;99.90;;;;;;4979115;28;21085;-67
2021/12/10 08:53:42;;;;;;;2.03;1.77;;;6.90;99.90;;;;;;4960829;28;20617;-69
2021/12/10 08:56:09;;;;;;;3.77;1.90;;;6.60;99.90;;;;;;4975285;28;20448;-69
2021/12/10 08:58:37;;;;;;;2.33;2.13;;;6.50;99.90;;;;;;4976579;28;20511;-68
2021/12/10 09:01:08;;;;;;;2.93;2.63;;;6.30;99.90;;;;;;4976726;28;20460;-69
2021/12/10 09:03:36;;;;;;;7.27;2.20;;;6.50;99.90;;;;;;4975576;28;20553;-69
2021/12/10 09:06:05;;;;;;;3.60;1.77;;;6.80;99.90;;;;;;4972681;28;20482;-68
2021/12/10 09:08:32;;;;;;;3.73;1.30;;;7.50;99.90;;;;;;4975480;28;20462;-69
2021/12/10 09:10:59;;;;;;;7.97;2.30;;;8.50;99.90;;;;;;4971640;28;20535;-69
2021/12/10 09:13:26;;;;;;;2.13;1.93;;;9.10;99.90;;;;;;4974094;28;20504;-69
2021/12/10 09:15:58;;;;;;;5.47;2.40;;;9.30;99.90;;;;;;4974303;28;20866;-69
2021/12/10 09:18:28;;;;;;;3.20;1.90;;;9.10;99.90;;;;;;4976408;28;20199;-69
2021/12/10 09:20:58;;;;;;;7.73;3.07;;;8.60;99.90;;;;;;4974062;28;20459;-69
2021/12/10 09:23:27;;;;;;;2.30;2.00;;;8.20;99.90;;;;;;4977419;28;20493;-68
2021/12/10 09:26:01;;;;;;;2.87;1.80;;;7.60;99.90;;;;;;4964971;28;20466;-68
2021/12/10 09:28:29;;;;;;;21.97;6.17;;;7.50;99.90;;;;;;4981028;28;20461;-69
2021/12/10 09:30:59;;;;;;;12.73;3.27;;;7.40;99.90;;;;;;4982594;28;20567;-69
2021/12/10 09:33:28;;;;;;;3.60;2.27;;;7.20;99.90;;;;;;4979277;28;20570;-69
2021/12/10 09:35:56;;;;;;;5.30;2.40;;;7.10;99.90;;;;;;4980328;28;20528;-69
2021/12/10 09:38:24;;;;;;;7.57;2.50;;;7.00;99.90;;;;;;4979715;28;21009;-69
2021/12/10 09:40:54;;;;;;;5.90;2.30;;;7.00;99.90;;;;;;4976939;28;20451;-70
2021/12/10 09:43:22;;;;;;;5.97;2.13;;;7.20;99.90;;;;;;4976152;28;20478;-67
2021/12/10 09:45:51;;;;;;;4.37;3.20;;;7.60;99.90;;;;;;4974928;28;20473;-69
2021/12/10 09:48:21;;;;;;;5.57;5.07;;;8.30;99.90;;;;;;4975821;28;21056;-70
2021/12/10 09:50:54;;;;;;;3.63;1.70;;;9.10;99.90;;;;;;4981368;28;20551;-67
2021/12/10 09:53:21;;;;;;;1.70;1.40;;;9.00;99.90;;;;;;4979758;28;20489;-68
2021/12/10 09:55:49;;;;;;;1.90;1.47;;;8.40;99.90;;;;;;4957948;28;20540;-67
2021/12/10 09:58:18;;;;;;;1.33;1.10;;;7.90;99.90;;;;;;4979716;28;21046;-69
2021/12/10 10:00:50;;;;;;;5.37;2.30;;;7.70;99.90;;;;;;4980706;28;20893;-70
2021/12/10 10:03:19;;;;;;;2.57;1.00;;;7.50;99.90;;;;;;4974738;28;20478;-69
2021/12/10 10:05:46;;;;;;;6.60;1.77;;;7.30;99.90;;;;;;4974202;28;20459;-69
2021/12/10 10:08:17;;;;;;;0.90;0.60;;;7.30;99.90;;;;;;4979052;28;20768;-69
2021/12/10 10:10:50;;;;;;;8.40;1.80;;;7.00;99.90;;;;;;4976078;28;20945;-69
2021/12/10 10:13:18;;;;;;;2.10;1.13;;;6.70;99.90;;;;;;4974535;28;20479;-70
2021/12/10 10:15:47;;;;;;;1.33;1.23;;;6.70;99.90;;;;;;4978244;28;21022;-70
2021/12/10 10:18:18;;;;;;;1.57;1.47;;;6.60;99.90;;;;;;4982077;28;20461;-68
2021/12/10 10:20:54;;;;;;;2.03;1.37;;;6.70;99.90;;;;;;4979525;28;20810;-69
2021/12/10 10:23:24;;;;;;;0.97;0.70;;;6.80;99.90;;;;;;4979076;28;20494;-71
2021/12/10 10:25:53;;;;;;;1.43;1.33;;;6.80;99.90;;;;;;4971518;28;20832;-70
2021/12/10 10:28:21;;;;;;;2.50;1.33;;;6.80;99.90;;;;;;4979626;28;20493;-70
2021/12/10 10:30:57;;;;;;;1.20;1.10;;;6.70;99.90;;;;;;4980666;28;21033;-70
2021/12/10 10:33:24;;;;;;;3.03;2.53;;;6.80;99.90;;;;;;4976132;28;20514;-69
2021/12/10 10:35:58;;;;;;;1.67;1.23;;;6.90;99.90;;;;;;4967316;28;20946;-70
2021/12/10 10:38:28;;;;;;;1.20;1.00;;;6.90;99.90;;;;;;4979399;28;20461;-69
2021/12/10 10:40:58;;;;;;;1.00;0.90;;;6.80;99.90;;;;;;4978345;28;20520;-69
2021/12/10 10:43:27;;;;;;;0.90;0.70;;;6.90;99.90;;;;;;4979150;28;20456;-69
2021/12/10 10:45:56;;;;;;;1.23;0.97;;;6.90;99.90;;;;;;4979894;28;20949;-68
2021/12/10 10:48:23;;;;;;;1.40;1.30;;;6.80;99.90;;;;;;4979119;28;20951;-69
2021/12/10 10:50:54;;;;;;;1.47;1.07;;;6.90;99.90;;;;;;4974500;28;21154;-69
2021/12/10 10:53:27;;;;;;;1.53;1.30;;;6.90;99.90;;;;;;4984204;28;20547;-68
2021/12/10 10:55:58;;;;;;;0.90;0.60;;;7.00;99.90;;;;;;4978047;28;21000;-70
2021/12/10 10:58:30;;;;;;;0.97;0.70;;;7.00;99.90;;;;;;4984422;28;20479;-69
2021/12/10 11:01:09;;;;;;;4.30;1.33;;;7.00;99.90;;;;;;4982133;28;20854;-72
2021/12/10 11:03:43;;;;;;;1.23;0.80;;;7.00;99.90;;;;;;4974978;28;21003;-69
2021/12/10 11:06:18;;;;;;;1.20;1.10;;;7.00;99.90;;;;;;4975031;28;20980;-69
2021/12/10 11:08:49;;;;;;;1.57;1.47;;;7.00;99.90;;;;;;4982178;28;20435;-69
2021/12/10 11:11:20;;;;;;;1.17;1.00;;;7.00;99.90;;;;;;4960034;28;20468;-71
2021/12/10 11:13:50;;;;;;;3.63;1.30;;;7.00;99.90;;;;;;4979397;28;20470;-70
2021/12/10 11:16:21;;;;;;;1.00;0.80;;;7.20;99.90;;;;;;4976202;28;20850;-70
2021/12/10 11:18:52;;;;;;;1.00;0.70;;;7.20;99.90;;;;;;4976448;28;20456;-69
2021/12/10 11:21:38;;;;;;;1.23;0.90;;;7.10;99.90;;;;;;4985692;28;20405;-70
2021/12/10 11:24:13;;;;;;;3.90;1.30;;;7.00;99.90;;;;;;4976180;28;20500;-70
2021/12/10 11:26:48;;;;;;;3.03;1.57;;;6.90;99.90;;;;;;4975171;28;20559;-69
2021/12/10 11:29:37;;;;;;;2.03;1.67;;;6.80;99.90;;;;;;4978277;28;20457;-69
2021/12/10 11:32:08;;;;;;;2.00;1.80;;;7.00;99.90;;;;;;4976384;28;20485;-70
2021/12/10 11:35:03;;;;;;;3.63;1.30;;;7.00;99.90;;;;;;4978452;28;20796;-70
2021/12/10 11:38:00;;;;;;;1.30;1.20;;;7.10;99.90;;;;;;4976171;28;20417;-69
2021/12/10 11:40:49;;;;;;;11.67;1.93;;;7.10;99.90;;;;;;4974880;28;20967;-72
2021/12/10 11:43:43;;;;;;;1.20;0.97;;;7.10;99.90;;;;;;4978034;28;20517;-70
2021/12/10 11:49:06;;;;;;;1.67;1.57;;;7.10;99.90;;;;;;4976565;28;20891;-70
2021/12/10 11:51:37;;;;;;;1.00;0.70;;;7.10;99.90;;;;;;4981273;28;20535;-70
2021/12/10 11:54:06;;;;;;;4.20;1.00;;;7.00;99.90;;;;;;4976141;28;20496;-70
2021/12/10 11:56:37;;;;;;;1.37;1.27;;;7.10;99.90;;;;;;4978095;28;20944;-70
2021/12/10 11:59:14;;;;;;;1.00;0.70;;;7.40;99.90;;;;;;4977246;28;20543;-72
2021/12/10 12:01:49;;;;;;;1.67;1.57;;;7.60;99.90;;;;;;4986485;28;20462;-69
2021/12/10 12:04:24;;;;;;;2.23;1.33;;;7.40;99.90;;;;;;4981041;28;20456;-69
2021/12/10 12:07:20;;;;;;;1.60;1.20;;;7.40;99.90;;;;;;4980614;28;20428;-69
2021/12/10 12:09:49;;;;;;;1.53;1.43;;;7.60;99.90;;;;;;4970677;28;20483;-71
2021/12/10 12:12:19;;;;;;;3.80;1.60;;;7.90;99.90;;;;;;4974620;28;20516;-71
2021/12/10 12:14:52;;;;;;;2.20;2.00;;;8.00;99.90;;;;;;4977004;28;20441;-69
2021/12/10 12:17:32;;;;;;;9.67;2.80;;;8.00;99.90;;;;;;4977872;28;21027;-68
2021/12/10 12:19:59;;;;;;;1.00;0.80;;;8.10;99.90;;;;;;4962732;28;20548;-70
2021/12/10 12:25:26;;;;;;;1.77;1.67;;;8.20;99.90;;;;;;4973354;28;20496;-69
2021/12/10 12:28:05;;;;;;;1.00;0.70;;;8.00;99.90;;;;;;4979488;28;20567;-68
2021/12/10 12:30:34;;;;;;;2.77;1.37;;;7.90;99.90;;;;;;4979515;28;20881;-70
2021/12/10 12:33:01;;;;;;;3.63;1.30;;;7.90;99.90;;;;;;4976101;28;21172;-70
2021/12/10 12:35:31;;;;;;;1.33;1.07;;;7.60;99.90;;;;;;4975977;28;20834;-70
2021/12/10 12:38:15;;;;;;;6.50;1.70;;;7.40;99.90;;;;;;4977637;28;20928;-70
2021/12/10 12:40:45;;;;;;;1.17;1.07;;;7.40;99.90;;;;;;4979242;28;20513;-70
2021/12/10 12:43:12;;;;;;;1.00;0.80;;;7.30;99.90;;;;;;4978647;28;21006;-70
2021/12/10 12:45:43;;;;;;;1.70;1.27;;;7.20;99.90;;;;;;4974122;28;20458;-71
2021/12/10 12:48:13;;;;;;;1.30;1.20;;;7.10;99.90;;;;;;4977555;28;20426;-70
2021/12/10 12:50:43;;;;;;;2.53;1.80;;;7.20;99.90;;;;;;4977533;28;20463;-70
2021/12/10 12:53:13;;;;;;;1.47;1.37;;;7.30;99.90;;;;;;4980504;28;20535;-69
2021/12/10 12:55:45;;;;;;;1.30;1.00;;;7.30;99.90;;;;;;4962345;28;20437;-69
2021/12/10 12:58:23;;;;;;;2.70;2.30;;;7.40;99.90;;;;;;4976083;28;20471;-70
2021/12/10 13:01:09;;;;;;;3.00;2.37;;;7.40;99.90;;;;;;4978597;28;20450;-70
2021/12/10 13:03:41;;;;;;;1.13;1.03;;;7.50;99.90;;;;;;4979369;28;20481;-72
2021/12/10 13:06:13;;;;;;;3.27;2.00;;;7.60;99.90;;;;;;4976503;28;20458;-70
2021/12/10 13:08:43;;;;;;;1.63;1.40;;;7.70;99.90;;;;;;4977973;28;20463;-70
2021/12/10 13:11:16;;;;;;;2.53;1.70;;;7.90;99.90;;;;;;4974850;28;20474;-70
2021/12/10 13:13:46;;;;;;;5.33;2.87;;;7.90;99.90;;;;;;4972485;28;20550;-71
2021/12/10 13:16:27;;;;;;;1.10;1.00;;;7.90;99.90;;;;;;4978408;28;20811;-70
2021/12/10 13:18:54;;;;;;;1.80;1.53;;;7.80;99.90;;;;;;4980467;28;21350;-70
2021/12/10 13:21:21;;;;;;;1.30;1.07;;;7.70;99.90;;;;;;4979643;28;20463;-69
2021/12/10 13:23:48;;;;;;;3.30;3.10;;;7.60;99.90;;;;;;4976139;28;20552;-71
2021/12/10 13:26:15;;;;;;;2.40;1.93;;;7.40;99.90;;;;;;4971935;28;20437;-69